Time;durP1;ratioP1;P1;durP2;ratioP2;P2;SDS_P1;SDS_P2;PMS_P1;PMS_P2;Temp;Humidity;BMP_temperature;BMP_pressure;BME280_temperature;BME280_humidity;BME280_pressure;Samples;Min_cycle;Max_cycle;Signal;HPM_P1;HPM_P2
2022/05/19 00:00:17;;;;;;;5.55;3.70;;;;;;;18.70;76.55;101038.72;688539;28;2107;-44
2022/05/19 00:01:19;;;;;;;5.07;3.40;;;;;;;18.68;76.50;101048.50;687015;28;1556;-43
2022/05/19 00:01:39;;;;;;;5.63;3.60;;;;;;;18.70;75.95;101049.31;688229;28;4562;-44
2022/05/19 00:02:01;;;;;;;5.00;3.58;;;;;;;18.70;76.06;101041.38;689988;28;1339;-44
2022/05/19 00:02:22;;;;;;;5.50;3.60;;;;;;;18.70;76.33;101044.00;688697;28;1715;-44
2022/05/19 00:02:42;;;;;;;5.30;3.67;;;;;;;18.71;76.05;101043.09;688568;28;1216;-44
2022/05/19 00:03:03;;;;;;;4.88;3.60;;;;;;;18.69;76.77;101042.31;687639;28;1346;-44
2022/05/19 00:03:25;;;;;;;4.93;3.60;;;;;;;18.69;76.54;101042.31;688668;28;1340;-45
2022/05/19 00:03:45;;;;;;;5.03;3.70;;;;;;;18.70;75.98;101044.00;687827;28;1347;-43
2022/05/19 00:04:06;;;;;;;5.00;3.67;;;;;;;18.70;76.40;101041.38;686992;28;1457;-44
2022/05/19 00:04:27;;;;;;;5.30;3.50;;;;;;;18.73;76.04;101040.41;687065;28;4320;-44
2022/05/19 00:04:48;;;;;;;5.20;3.50;;;;;;;18.71;75.92;101045.75;686912;28;1274;-44
2022/05/19 00:05:10;;;;;;;5.73;3.60;;;;;;;18.71;75.92;101043.09;688618;28;1394;-44
2022/05/19 00:05:31;;;;;;;4.57;3.50;;;;;;;18.71;75.89;101045.75;689813;28;1342;-43
2022/05/19 00:05:52;;;;;;;5.15;3.70;;;;;;;18.74;75.41;101044.78;688691;28;1226;-43
2022/05/19 00:06:13;;;;;;;5.30;3.65;;;;;;;18.76;75.32;101044.72;689729;28;1633;-45
2022/05/19 00:06:33;;;;;;;5.15;3.60;;;;;;;18.75;75.86;101045.66;687515;28;1335;-44
2022/05/19 00:06:54;;;;;;;5.07;3.60;;;;;;;18.77;75.22;101046.47;687726;28;1194;-44
2022/05/19 00:07:15;;;;;;;5.30;3.65;;;;;;;18.80;75.12;101043.72;686503;28;1509;-44
2022/05/19 00:07:36;;;;;;;5.05;3.47;;;;;;;18.79;75.59;101042.88;687352;28;4541;-46
2022/05/19 00:07:56;;;;;;;6.05;3.78;;;;;;;18.78;75.28;101042.91;685923;28;1236;-44
2022/05/19 00:08:17;;;;;;;5.30;3.47;;;;;;;18.77;75.13;101043.81;687640;28;1563;-45
2022/05/19 00:08:38;;;;;;;5.13;3.45;;;;;;;18.77;75.00;101047.31;686854;28;1430;-46
2022/05/19 00:08:59;;;;;;;5.73;3.40;;;;;;;18.77;75.28;101044.69;682901;28;1298;-44
2022/05/19 00:09:20;;;;;;;6.30;3.65;;;;;;;18.79;75.37;101040.22;683903;28;1664;-44
2022/05/19 00:09:41;;;;;;;5.75;3.65;;;;;;;18.79;75.40;101045.50;683091;28;1632;-44
2022/05/19 00:10:02;;;;;;;6.78;3.70;;;;;;;18.79;75.16;101041.97;683820;28;1537;-44
2022/05/19 00:10:22;;;;;;;5.22;3.45;;;;;;;18.82;75.30;101041.91;685650;28;4652;-44
2022/05/19 00:10:47;;;;;;;4.78;3.40;;;;;;;18.82;75.08;101044.56;685554;28;1255;-46
2022/05/19 00:11:11;;;;;;;5.05;3.30;;;;;;;18.79;74.91;101044.63;687614;28;1135;-43
2022/05/19 00:11:32;;;;;;;5.10;3.50;;;;;;;18.79;75.45;101044.63;687223;28;1235;-44
2022/05/19 00:11:55;;;;;;;4.97;3.58;;;;;;;18.77;75.28;101043.81;686636;28;1219;-43
2022/05/19 00:12:19;;;;;;;5.90;3.70;;;;;;;18.76;75.32;101042.09;686992;28;1188;-44
2022/05/19 00:12:39;;;;;;;5.90;3.63;;;;;;;18.75;75.09;101040.34;687307;28;1295;-45
2022/05/19 00:13:00;;;;;;;5.13;3.55;;;;;;;18.74;75.29;101041.28;685083;28;1040;-44
2022/05/19 00:13:21;;;;;;;4.50;3.40;;;;;;;18.72;75.44;101042.19;687828;28;1345;-45
2022/05/19 00:13:42;;;;;;;4.22;3.38;;;;;;;18.73;75.27;101040.41;682707;28;4845;-45
2022/05/19 00:14:03;;;;;;;4.45;3.40;;;;;;;18.74;76.11;101046.59;687615;28;1223;-44
2022/05/19 00:14:24;;;;;;;5.13;3.50;;;;;;;18.71;75.76;101040.44;687442;28;1247;-44
2022/05/19 00:14:44;;;;;;;5.30;3.40;;;;;;;18.70;75.29;101038.72;686105;28;1151;-44
2022/05/19 00:15:05;;;;;;;4.70;3.60;;;;;;;18.70;75.38;101045.81;686969;28;1305;-46
2022/05/19 00:15:26;;;;;;;6.47;3.67;;;;;;;18.76;75.37;101044.72;686502;28;1377;-45
2022/05/19 00:15:47;;;;;;;6.82;3.60;;;;;;;18.79;75.37;101044.63;686992;28;1356;-44
2022/05/19 00:16:08;;;;;;;5.55;3.50;;;;;;;18.79;75.58;101041.97;686931;28;1279;-43
2022/05/19 00:16:29;;;;;;;4.73;3.40;;;;;;;18.77;75.20;101041.19;685333;28;4406;-44
2022/05/19 00:16:50;;;;;;;5.05;3.38;;;;;;;18.76;75.24;101042.09;685781;28;1342;-44
2022/05/19 00:17:10;;;;;;;5.97;3.27;;;;;;;18.76;74.90;101034.13;687702;28;1528;-44
2022/05/19 00:17:31;;;;;;;5.22;3.45;;;;;;;18.75;75.06;101040.34;687064;28;1398;-43
2022/05/19 00:17:51;;;;;;;5.00;3.40;;;;;;;18.74;75.03;101043.94;685919;28;1906;-46
2022/05/19 00:18:12;;;;;;;5.78;3.38;;;;;;;18.72;75.03;101039.53;686247;28;1333;-44
2022/05/19 00:18:36;;;;;;;6.13;3.50;;;;;;;18.74;74.92;101038.63;687280;28;1449;-44
2022/05/19 00:18:56;;;;;;;6.50;3.22;;;;;;;18.75;74.86;101037.69;687431;28;1242;-44
2022/05/19 00:19:18;;;;;;;5.33;3.50;;;;;;;18.75;75.18;101038.59;687214;28;1616;-45
2022/05/19 00:19:38;;;;;;;4.43;3.50;;;;;;;18.75;75.08;101040.34;686643;28;4261;-45
2022/05/19 00:19:59;;;;;;;4.60;3.40;;;;;;;18.72;75.77;101039.53;686533;28;3449;-44
2022/05/19 00:20:21;;;;;;;4.88;3.50;;;;;;;18.70;75.56;101036.06;688668;28;1405;-43
2022/05/19 00:20:42;;;;;;;4.60;3.43;;;;;;;18.71;75.21;101037.81;689967;28;1517;-44
2022/05/19 00:21:04;;;;;;;5.38;3.50;;;;;;;18.69;75.47;101039.66;689865;28;1358;-45
2022/05/19 00:21:24;;;;;;;5.53;3.40;;;;;;;18.68;75.13;101037.91;688933;28;1263;-45
2022/05/19 00:21:45;;;;;;;5.57;3.20;;;;;;;18.69;75.56;101037.00;690484;28;1306;-44
2022/05/19 00:22:06;;;;;;;4.97;3.30;;;;;;;18.71;75.44;101043.09;688151;28;1719;-44
2022/05/19 00:22:26;;;;;;;5.72;3.60;;;;;;;18.71;75.78;101031.66;687092;28;4356;-44
2022/05/19 00:22:47;;;;;;;4.70;3.40;;;;;;;18.71;75.43;101040.44;687751;28;1290;-46
2022/05/19 00:23:07;;;;;;;5.65;3.60;;;;;;;18.70;75.85;101037.84;687727;28;1453;-45
2022/05/19 00:23:28;;;;;;;6.43;3.50;;;;;;;18.70;76.15;101038.72;688442;28;1283;-45
2022/05/19 00:23:48;;;;;;;5.63;3.45;;;;;;;18.69;75.55;101037.00;687621;28;1290;-44
2022/05/19 00:24:10;;;;;;;5.70;3.72;;;;;;;18.70;75.64;101045.81;687763;28;1314;-44
2022/05/19 00:24:30;;;;;;;5.65;3.40;;;;;;;18.68;75.39;101035.25;688505;28;1306;-45
2022/05/19 00:24:51;;;;;;;6.20;3.53;;;;;;;18.71;75.11;101044.91;687314;28;1312;-44
2022/05/19 00:25:11;;;;;;;4.93;3.40;;;;;;;18.71;75.12;101035.16;687004;28;1434;-44
2022/05/19 00:25:32;;;;;;;6.25;3.55;;;;;;;18.74;75.11;101038.63;687219;28;4430;-44
2022/05/19 00:25:52;;;;;;;5.07;3.70;;;;;;;18.75;75.00;101043.00;686309;28;1266;-43
2022/05/19 00:26:13;;;;;;;4.60;3.55;;;;;;;18.75;75.11;101035.03;688180;28;1406;-45
2022/05/19 00:26:33;;;;;;;5.33;3.40;;;;;;;18.75;75.17;101035.03;685450;28;1407;-44
2022/05/19 00:26:54;;;;;;;5.75;3.60;;;;;;;18.74;75.26;101044.78;684883;28;1275;-45
2022/05/19 00:27:14;;;;;;;4.82;3.50;;;;;;;18.73;74.92;101032.47;686719;28;1461;-44
2022/05/19 00:27:35;;;;;;;4.53;3.50;;;;;;;18.74;74.82;101042.13;686377;28;1624;-45
2022/05/19 00:27:56;;;;;;;4.33;3.57;;;;;;;18.72;75.29;101036.91;687018;28;1259;-44
2022/05/19 00:28:16;;;;;;;4.55;3.45;;;;;;;18.74;75.32;101043.94;687082;28;1433;-45
2022/05/19 00:28:37;;;;;;;5.85;3.63;;;;;;;18.76;74.83;101036.78;689118;28;4471;-44
2022/05/19 00:28:57;;;;;;;6.20;3.67;;;;;;;18.74;74.69;101034.19;690648;28;1056;-45
2022/05/19 00:29:17;;;;;;;5.10;3.53;;;;;;;18.73;74.92;101037.75;690326;28;1398;-44
2022/05/19 00:29:38;;;;;;;4.80;3.30;;;;;;;18.76;75.17;101037.69;687059;28;1449;-45
2022/05/19 00:29:59;;;;;;;4.70;3.40;;;;;;;18.76;74.75;101027.09;686687;28;1226;-44
2022/05/19 00:30:19;;;;;;;5.75;3.45;;;;;;;18.76;74.80;101036.78;686558;28;1501;-44
2022/05/19 00:30:40;;;;;;;5.30;3.40;;;;;;;18.80;74.18;101036.66;686904;28;1378;-44
2022/05/19 00:31:01;;;;;;;5.65;3.40;;;;;;;18.81;74.22;101035.72;687188;28;1551;-44
2022/05/19 00:31:21;;;;;;;5.45;3.40;;;;;;;18.83;74.22;101039.19;689053;28;1632;-45
2022/05/19 00:31:42;;;;;;;5.77;3.30;;;;;;;18.82;74.43;101036.59;689180;28;4413;-44
2022/05/19 00:32:03;;;;;;;6.43;3.35;;;;;;;18.80;74.64;101033.13;688914;28;1283;-44
2022/05/19 00:32:23;;;;;;;5.50;3.33;;;;;;;18.79;74.70;101041.97;688644;28;1251;-44
2022/05/19 00:32:43;;;;;;;5.63;3.40;;;;;;;18.76;74.55;101037.69;688723;28;1267;-45
2022/05/19 00:33:04;;;;;;;5.30;3.40;;;;;;;18.75;74.68;101037.69;688704;28;1211;-44
2022/05/19 00:33:25;;;;;;;6.45;3.60;;;;;;;18.71;74.42;101032.50;687934;28;1262;-44
2022/05/19 00:33:45;;;;;;;5.88;3.60;;;;;;;18.73;74.41;101035.09;687358;28;1236;-45
2022/05/19 00:34:06;;;;;;;6.17;3.57;;;;;;;18.72;74.48;101031.59;687231;28;1263;-44
2022/05/19 00:34:27;;;;;;;5.70;3.60;;;;;;;18.69;74.98;101037.00;685562;28;4464;-44
2022/05/19 00:34:47;;;;;;;5.32;3.78;;;;;;;18.72;74.62;101031.59;686704;28;1274;-44
2022/05/19 00:35:08;;;;;;;7.03;3.50;;;;;;;18.72;74.93;101036.03;686927;28;1298;-45
2022/05/19 00:35:28;;;;;;;5.95;3.30;;;;;;;18.72;75.43;101031.59;685908;28;1521;-44
2022/05/19 00:35:49;;;;;;;6.03;3.72;;;;;;;18.74;75.27;101033.34;686322;28;1119;-45
2022/05/19 00:36:18;;;;;;;6.50;3.57;;;;;;;18.74;74.92;101033.34;687541;28;1326;-43
2022/05/19 00:36:39;;;;;;;5.18;3.50;;;;;;;18.75;75.33;101029.75;687299;28;1454;-44
2022/05/19 00:37:02;;;;;;;5.00;3.50;;;;;;;18.81;73.84;101029.56;687075;28;1188;-44
2022/05/19 00:37:23;;;;;;;7.22;3.80;;;;;;;18.79;75.10;101028.72;686230;28;4529;-44
2022/05/19 00:37:43;;;;;;;5.28;3.53;;;;;;;18.76;74.50;101032.38;684455;28;1183;-44
2022/05/19 00:38:05;;;;;;;4.80;3.30;;;;;;;18.77;74.14;101038.53;682079;28;2374;-44
2022/05/19 00:38:25;;;;;;;5.10;3.45;;;;;;;18.79;74.27;101031.38;681814;28;1292;-45
2022/05/19 00:38:46;;;;;;;5.63;3.43;;;;;;;18.78;74.41;101033.19;682740;28;1247;-46
2022/05/19 00:39:10;;;;;;;5.22;3.50;;;;;;;18.79;74.30;101028.72;685473;28;1320;-44
2022/05/19 00:39:35;;;;;;;5.20;3.50;;;;;;;18.81;74.72;101034.88;686604;28;1255;-44
2022/05/19 00:39:55;;;;;;;5.75;3.65;;;;;;;18.82;74.43;101033.97;686935;28;1214;-44
2022/05/19 00:40:18;;;;;;;5.53;3.85;;;;;;;18.81;74.18;101029.56;687299;28;1500;-43
2022/05/19 00:40:43;;;;;;;6.15;3.65;;;;;;;18.82;74.12;101036.59;687799;28;4299;-44
2022/05/19 00:41:04;;;;;;;5.22;3.60;;;;;;;18.84;74.09;101032.09;689135;28;1384;-44
2022/05/19 00:41:27;;;;;;;5.50;3.85;;;;;;;18.82;74.28;101028.66;687983;28;1251;-45
2022/05/19 00:42:43;;;;;;;4.90;3.60;;;;;;;18.83;74.02;101033.00;687367;28;1243;-44
2022/05/19 00:42:43;;;;;;;5.32;3.47;;;;;;;18.84;73.64;101034.75;687662;28;4407;-44
2022/05/19 00:43:04;;;;;;;4.63;3.33;;;;;;;18.82;73.70;101031.31;686993;28;1302;-43
2022/05/19 00:43:31;;;;;;;6.40;3.70;;;;;;;18.81;73.69;101034.88;687361;28;4468;-43
2022/05/19 00:43:58;;;;;;;4.75;3.30;;;;;;;18.78;73.88;101030.53;687850;28;1270;-43
2022/05/19 00:44:20;;;;;;;5.70;3.40;;;;;;;18.76;74.09;101034.13;686435;28;1413;-43
2022/05/19 00:44:41;;;;;;;6.90;3.45;;;;;;;18.76;73.77;101029.72;688133;28;1496;-43
2022/05/19 00:45:06;;;;;;;7.00;3.60;;;;;;;18.77;73.86;101034.09;687402;28;1399;-44
2022/05/19 00:45:37;;;;;;;5.22;3.40;;;;;;;18.77;74.02;101027.94;683972;28;1482;-44
2022/05/19 00:46:14;;;;;;;5.72;3.30;;;;;;;18.71;74.30;101034.31;686508;28;1219;-43
2022/05/19 00:46:52;;;;;;;5.20;3.40;;;;;;;18.72;74.00;101036.03;687490;28;5402;-44
2022/05/19 00:47:19;;;;;;;5.03;3.50;;;;;;;18.73;73.83;101032.47;685684;28;1212;-44
2022/05/19 00:47:58;;;;;;;6.45;3.70;;;;;;;18.77;74.02;101030.59;687764;28;1741;-44
2022/05/19 00:48:29;;;;;;;5.43;3.70;;;;;;;18.79;74.07;101031.38;686307;28;1263;-45
2022/05/19 00:48:55;;;;;;;4.80;3.30;;;;;;;18.76;73.45;101035.03;687228;28;1324;-44
2022/05/19 00:49:24;;;;;;;5.75;3.42;;;;;;;18.75;73.57;101027.09;686029;28;1091;-43
2022/05/19 00:49:46;;;;;;;5.03;3.35;;;;;;;18.76;73.46;101028.84;686953;28;4743;-43
2022/05/19 00:50:15;;;;;;;5.05;3.53;;;;;;;18.76;73.36;101027.09;687556;28;1088;-43
2022/05/19 00:50:42;;;;;;;5.60;3.50;;;;;;;18.77;73.37;101026.13;690665;28;1222;-44
2022/05/19 00:51:05;;;;;;;5.50;3.28;;;;;;;18.78;73.18;101034.97;686549;28;1743;-45
2022/05/19 00:51:57;;;;;;;5.43;3.50;;;;;;;18.80;73.56;101028.72;686483;28;1325;-43
2022/05/19 00:52:36;;;;;;;5.22;3.33;;;;;;;18.85;73.44;101033.84;675061;29;1475;-43
2022/05/19 00:53:07;;;;;;;5.72;3.30;;;;;;;18.83;73.94;101023.31;677678;29;5224;-45
2022/05/19 00:53:31;;;;;;;4.82;3.50;;;;;;;18.83;73.38;101028.59;687652;28;1747;-44
2022/05/19 00:53:54;;;;;;;5.50;3.50;;;;;;;18.83;74.17;101028.59;687059;28;1160;-47
2022/05/19 00:54:18;;;;;;;5.32;3.35;;;;;;;18.82;73.40;101029.50;685263;28;1187;-44
2022/05/19 00:54:46;;;;;;;5.78;3.22;;;;;;;18.81;73.67;101029.56;685986;28;1526;-43
2022/05/19 00:55:10;;;;;;;4.60;3.15;;;;;;;18.81;73.45;101032.22;685382;28;1200;-44
2022/05/19 00:55:37;;;;;;;5.78;3.33;;;;;;;18.82;74.42;101031.31;685772;28;4300;-45
2022/05/19 00:56:03;;;;;;;5.00;3.55;;;;;;;18.78;74.34;101024.38;688056;28;1053;-43
2022/05/19 00:56:30;;;;;;;5.05;3.50;;;;;;;18.76;73.68;101031.50;687206;28;1354;-43
2022/05/19 00:56:56;;;;;;;5.85;3.58;;;;;;;18.77;73.71;101022.63;686920;28;1239;-44
2022/05/19 00:57:23;;;;;;;5.85;3.47;;;;;;;18.76;73.66;101035.03;686360;28;1404;-44
2022/05/19 00:57:49;;;;;;;4.38;3.20;;;;;;;18.72;74.95;101028.94;685107;28;1282;-44
2022/05/19 00:58:26;;;;;;;5.63;3.42;;;;;;;18.71;74.49;101027.22;687272;28;1100;-44
2022/05/19 00:59:10;;;;;;;5.28;3.65;;;;;;;18.84;72.40;101024.16;688127;28;5127;-46
2022/05/19 00:59:35;;;;;;;5.85;3.35;;;;;;;18.87;73.52;101022.31;686628;28;1483;-43
2022/05/19 01:00:17;;;;;;;6.03;3.50;;;;;;;18.87;73.30;101024.06;686465;28;1036;-43
2022/05/19 01:00:38;;;;;;;6.00;3.60;;;;;;;18.85;73.45;101012.66;688107;28;1101;-44
2022/05/19 01:00:58;;;;;;;7.07;3.77;;;;;;;18.85;73.08;101023.25;689054;28;1204;-46
2022/05/19 01:01:22;;;;;;;5.45;3.63;;;;;;;18.85;73.58;101020.59;688823;28;1441;-44
2022/05/19 01:01:44;;;;;;;5.80;3.30;;;;;;;18.84;73.51;101024.16;686251;28;4696;-43
2022/05/19 01:02:08;;;;;;;5.20;3.15;;;;;;;18.84;73.32;101017.09;688592;28;1298;-44
2022/05/19 01:02:36;;;;;;;5.30;3.50;;;;;;;18.86;72.90;101025.00;686229;28;1422;-43
2022/05/19 01:03:00;;;;;;;5.05;3.50;;;;;;;18.85;73.67;101025.91;688255;28;1282;-46
2022/05/19 01:03:22;;;;;;;5.55;3.60;;;;;;;18.86;73.02;101023.19;687441;28;1541;-44
2022/05/19 01:03:49;;;;;;;4.70;3.70;;;;;;;18.87;73.50;101029.34;686004;28;1298;-44
2022/05/19 01:04:18;;;;;;;4.57;3.40;;;;;;;18.86;73.41;101023.19;686554;28;1421;-43
2022/05/19 01:04:49;;;;;;;5.35;3.40;;;;;;;18.85;73.37;101020.59;686649;28;4354;-43
2022/05/19 01:05:35;;;;;;;5.07;3.33;;;;;;;18.84;73.51;101021.50;686902;28;1333;-44
2022/05/19 01:06:03;;;;;;;5.75;3.50;;;;;;;18.82;73.79;101012.75;687358;28;1255;-45
2022/05/19 01:06:25;;;;;;;5.82;3.60;;;;;;;18.83;73.75;101022.41;686689;28;1434;-44
2022/05/19 01:06:50;;;;;;;5.32;3.33;;;;;;;18.83;73.67;101019.78;687066;28;1366;-44
2022/05/19 01:07:23;;;;;;;5.47;3.50;;;;;;;18.81;74.00;101019.81;688303;28;1361;-46
2022/05/19 01:08:16;;;;;;;4.50;3.28;;;;;;;18.82;73.88;101020.72;686282;28;5128;-44
2022/05/19 01:08:47;;;;;;;5.18;3.30;;;;;;;18.81;73.92;101013.69;688421;28;1508;-44
2022/05/19 01:09:12;;;;;;;4.53;3.28;;;;;;;18.79;73.89;101011.09;687693;28;1295;-44
2022/05/19 01:09:35;;;;;;;5.32;3.60;;;;;;;18.77;73.68;101012.91;686788;28;1460;-44
2022/05/19 01:09:57;;;;;;;4.63;3.35;;;;;;;18.76;73.30;101016.50;687968;28;1289;-44
2022/05/19 01:10:18;;;;;;;5.15;3.35;;;;;;;18.80;74.25;101012.81;688986;28;1492;-44
2022/05/19 01:10:41;;;;;;;5.05;3.45;;;;;;;18.82;73.78;101012.75;687589;28;4480;-44
2022/05/19 01:11:05;;;;;;;5.47;3.40;;;;;;;18.80;73.97;101012.81;686799;28;1266;-44
2022/05/19 01:11:25;;;;;;;5.10;3.40;;;;;;;18.85;73.96;101008.22;688113;28;1297;-44
2022/05/19 01:11:51;;;;;;;5.55;3.58;;;;;;;18.88;72.68;101004.63;686938;28;1349;-45
2022/05/19 01:12:12;;;;;;;6.30;3.67;;;;;;;18.90;73.16;101008.09;687577;28;1293;-44
2022/05/19 01:12:33;;;;;;;6.43;3.50;;;;;;;18.99;72.11;101007.78;687151;28;1402;-44
2022/05/19 01:12:54;;;;;;;6.05;3.40;;;;;;;18.98;72.42;101002.53;685885;28;1380;-44
2022/05/19 01:13:15;;;;;;;5.50;3.33;;;;;;;19.00;71.57;101006.88;687015;28;1461;-44
2022/05/19 01:13:36;;;;;;;5.30;3.35;;;;;;;19.00;71.87;101004.22;685445;28;5099;-44
2022/05/19 01:13:56;;;;;;;6.20;3.20;;;;;;;18.99;71.49;101002.47;686528;28;1250;-44
2022/05/19 01:14:17;;;;;;;5.63;3.35;;;;;;;18.98;71.96;101008.72;683847;28;1751;-45
2022/05/19 01:14:39;;;;;;;5.85;3.75;;;;;;;19.04;71.03;101005.84;683723;28;1211;-46
2022/05/19 01:15:00;;;;;;;5.70;3.65;;;;;;;19.08;70.47;101008.38;685444;28;1262;-44
2022/05/19 01:15:22;;;;;;;6.45;3.50;;;;;;;19.14;70.10;101003.72;683653;28;1453;-45
2022/05/19 01:15:47;;;;;;;5.63;3.28;;;;;;;19.14;70.86;101000.22;684211;28;1204;-49
2022/05/19 01:16:10;;;;;;;5.03;3.47;;;;;;;19.11;71.78;101008.28;684528;28;3376;-44
2022/05/19 01:16:30;;;;;;;4.60;3.40;;;;;;;19.09;71.66;101002.16;685589;28;4437;-44
2022/05/19 01:16:50;;;;;;;4.68;3.40;;;;;;;19.08;70.94;101006.59;687890;28;1317;-43
2022/05/19 01:17:11;;;;;;;4.83;3.40;;;;;;;19.10;70.91;101006.56;687402;28;1456;-43
2022/05/19 01:17:33;;;;;;;5.00;3.47;;;;;;;19.11;70.49;101003.00;687365;28;1181;-44
2022/05/19 01:17:54;;;;;;;5.53;3.58;;;;;;;19.13;70.20;100998.50;685756;28;1922;-44
2022/05/19 01:18:15;;;;;;;5.20;3.60;;;;;;;19.18;70.26;100999.19;683701;28;1452;-45
2022/05/19 01:18:37;;;;;;;4.53;3.30;;;;;;;19.17;70.40;101006.25;683439;28;1620;-46
2022/05/19 01:18:59;;;;;;;4.57;3.45;;;;;;;19.20;69.78;101003.53;684528;28;1345;-44
2022/05/19 01:19:42;;;;;;;5.75;3.67;;;;;;;19.29;68.65;100997.03;686120;28;1968;-44
2022/05/19 01:20:18;;;;;;;4.60;3.58;;;;;;;19.30;69.19;101001.41;684390;28;4759;-44
2022/05/19 01:20:41;;;;;;;5.15;3.50;;;;;;;19.28;69.28;101002.38;689156;28;1516;-43
2022/05/19 01:21:03;;;;;;;6.65;3.50;;;;;;;19.30;68.83;101001.41;686836;28;2345;-44
2022/05/19 01:21:27;;;;;;;6.63;3.60;;;;;;;19.35;68.29;101004.75;683160;28;1422;-43
2022/05/19 01:21:54;;;;;;;5.32;3.53;;;;;;;19.44;67.76;101000.91;684643;28;1187;-44
2022/05/19 01:22:23;;;;;;;5.82;3.40;;;;;;;19.77;66.10;101002.34;684506;28;1445;-48
2022/05/19 01:22:48;;;;;;;5.38;3.40;;;;;;;19.77;66.08;101000.59;679680;28;5065;-45
2022/05/19 01:23:39;;;;;;;5.60;3.53;;;;;;;19.78;65.98;100997.00;683837;28;1478;-44
2022/05/19 01:24:02;;;;;;;6.75;3.67;;;;;;;19.78;66.25;101001.44;686376;28;1255;-44
2022/05/19 01:24:50;;;;;;;5.07;3.50;;;;;;;19.80;66.46;101004.91;686533;28;1300;-43
2022/05/19 01:25:37;;;;;;;4.70;3.20;;;;;;;19.73;67.47;101002.47;687555;28;1301;-44
2022/05/19 01:26:27;;;;;;;5.07;3.20;;;;;;;19.67;67.44;101002.69;685476;28;5755;-45
2022/05/19 01:26:51;;;;;;;4.60;3.38;;;;;;;19.62;67.69;101007.31;687328;28;1305;-44
2022/05/19 01:27:11;;;;;;;5.60;3.60;;;;;;;19.59;68.12;101004.75;686372;28;1275;-44
2022/05/19 01:27:33;;;;;;;5.37;3.50;;;;;;;19.61;67.10;101005.59;687623;28;1311;-44
2022/05/19 01:27:55;;;;;;;6.60;3.67;;;;;;;19.61;66.70;101007.38;686602;28;1287;-43
2022/05/19 01:28:16;;;;;;;5.95;3.50;;;;;;;19.57;68.31;101010.13;687354;28;1463;-43
2022/05/19 01:28:37;;;;;;;5.55;3.53;;;;;;;19.56;67.18;101010.19;685514;28;5408;-43
2022/05/19 01:28:58;;;;;;;5.05;3.60;;;;;;;19.54;67.11;101010.25;687240;28;1329;-43
2022/05/19 01:29:23;;;;;;;5.60;3.60;;;;;;;19.53;67.33;101010.31;686692;28;1631;-43
2022/05/19 01:29:44;;;;;;;5.22;3.70;;;;;;;19.52;67.04;101014.75;685745;28;1471;-43
2022/05/19 01:30:08;;;;;;;5.45;3.65;;;;;;;19.51;67.37;101015.66;685947;28;1287;-46
2022/05/19 01:30:29;;;;;;;5.97;3.38;;;;;;;19.50;67.54;101013.09;686314;28;1461;-44
2022/05/19 01:30:49;;;;;;;5.05;3.25;;;;;;;19.52;67.83;101011.22;684153;28;1278;-44
2022/05/19 01:31:29;;;;;;;5.27;3.53;;;;;;;19.55;67.01;101013.78;683653;28;1339;-45
2022/05/19 01:32:01;;;;;;;6.10;3.50;;;;;;;19.53;67.71;101007.66;687059;28;4791;-45
2022/05/19 01:32:25;;;;;;;5.57;3.50;;;;;;;19.54;68.55;101012.03;683870;28;1699;-44
2022/05/19 01:32:45;;;;;;;5.70;3.42;;;;;;;19.53;68.57;101019.13;686163;28;1319;-45
2022/05/19 01:33:06;;;;;;;5.93;3.30;;;;;;;19.52;68.34;101013.88;684815;28;1367;-44
2022/05/19 01:33:27;;;;;;;5.05;3.50;;;;;;;19.51;67.84;101017.47;682536;28;1247;-44
2022/05/19 01:33:47;;;;;;;5.78;3.63;;;;;;;19.52;66.98;101012.09;682070;28;1216;-44
2022/05/19 01:34:08;;;;;;;5.70;3.63;;;;;;;19.54;66.80;101020.00;682216;28;1244;-44
2022/05/19 01:34:32;;;;;;;6.32;3.70;;;;;;;19.58;66.56;101016.31;685627;28;4326;-44
2022/05/19 01:34:53;;;;;;;5.50;3.45;;;;;;;19.57;66.74;101020.72;684372;28;1239;-44
2022/05/19 01:35:13;;;;;;;4.65;3.58;;;;;;;19.59;67.23;101018.03;684431;28;1420;-44
2022/05/19 01:35:33;;;;;;;5.37;3.37;;;;;;;19.60;66.97;101009.16;687255;28;1572;-44
2022/05/19 01:35:54;;;;;;;4.78;3.38;;;;;;;19.59;67.41;101011.88;683896;28;1247;-43
2022/05/19 01:36:14;;;;;;;5.00;3.37;;;;;;;19.54;67.27;101012.91;686488;28;1390;-44
2022/05/19 01:36:36;;;;;;;4.55;3.15;;;;;;;19.56;67.86;101016.38;688950;28;1423;-44
2022/05/19 01:36:57;;;;;;;4.95;3.40;;;;;;;19.54;68.13;101009.41;687329;28;1118;-44
2022/05/19 01:37:23;;;;;;;4.88;3.50;;;;;;;19.49;68.73;101011.34;684186;28;4583;-44
2022/05/19 01:37:56;;;;;;;4.40;3.30;;;;;;;19.49;68.50;101014.00;684750;28;1964;-45
2022/05/19 01:38:32;;;;;;;5.60;3.58;;;;;;;19.47;69.31;101007.91;685155;28;1310;-45
2022/05/19 01:39:18;;;;;;;5.22;3.40;;;;;;;19.56;67.64;101011.06;685628;28;1259;-45
2022/05/19 01:39:39;;;;;;;6.63;3.90;;;;;;;19.61;68.36;101013.53;688084;28;1482;-44
2022/05/19 01:40:11;;;;;;;6.38;3.88;;;;;;;19.59;67.76;101012.72;688761;28;1230;-43
2022/05/19 01:40:59;;;;;;;4.97;3.53;;;;;;;19.56;66.88;101010.19;689244;28;4460;-44
2022/05/19 01:41:31;;;;;;;5.43;3.10;;;;;;;19.64;66.43;101009.91;686400;28;1572;-46
2022/05/19 01:42:28;;;;;;;5.70;3.30;;;;;;;19.58;68.00;101005.72;686780;28;1294;-44
2022/05/19 01:43:15;;;;;;;5.95;3.45;;;;;;;19.53;68.21;101008.50;685646;28;1116;-44
2022/05/19 01:43:54;;;;;;;5.07;3.60;;;;;;;19.54;67.11;101004.09;685229;28;4501;-45
2022/05/19 01:44:36;;;;;;;5.90;3.47;;;;;;;19.53;66.78;100997.91;686654;28;1088;-47
2022/05/19 01:45:07;;;;;;;5.13;3.30;;;;;;;19.55;67.24;101001.38;687248;28;1171;-43
2022/05/19 01:45:47;;;;;;;5.88;3.55;;;;;;;19.53;68.70;101000.56;686946;28;1255;-45
2022/05/19 01:46:34;;;;;;;5.53;3.20;;;;;;;19.50;68.70;100991.88;685556;28;1217;-45
2022/05/19 01:47:06;;;;;;;4.93;3.20;;;;;;;19.48;67.00;100994.59;686205;28;4881;-43
2022/05/19 01:47:43;;;;;;;5.32;3.40;;;;;;;19.54;66.53;100997.00;687452;28;1131;-44
2022/05/19 01:48:27;;;;;;;5.90;3.50;;;;;;;19.58;66.99;100989.81;687949;28;1068;-43
2022/05/19 01:48:59;;;;;;;5.00;3.17;;;;;;;19.60;66.23;100993.25;687633;28;1498;-44
2022/05/19 01:49:42;;;;;;;5.65;3.47;;;;;;;19.63;65.87;100992.28;686640;28;1163;-45
2022/05/19 01:50:34;;;;;;;6.30;3.50;;;;;;;19.65;65.67;100979.84;685414;28;5075;-45
2022/05/19 01:51:12;;;;;;;5.10;3.40;;;;;;;19.73;66.04;100983.06;687267;28;989;-45
2022/05/19 01:52:04;;;;;;;6.07;3.30;;;;;;;19.73;65.21;100983.06;686391;28;1147;-44
2022/05/19 01:52:56;;;;;;;5.22;3.35;;;;;;;19.74;65.03;100980.34;688269;28;4438;-43
2022/05/19 01:53:25;;;;;;;4.95;3.30;;;;;;;19.82;65.32;100981.88;688306;28;1060;-44
2022/05/19 01:54:27;;;;;;;5.85;3.60;;;;;;;19.86;64.54;100979.03;686888;28;1270;-45
2022/05/19 01:55:03;;;;;;;5.47;3.35;;;;;;;19.83;64.86;100983.59;688196;28;1204;-45
2022/05/19 01:55:49;;;;;;;5.95;3.45;;;;;;;19.79;64.61;100974.00;685942;28;4315;-44
2022/05/19 01:56:10;;;;;;;5.45;3.33;;;;;;;19.81;64.80;100980.13;676778;28;1289;-44
2022/05/19 01:56:33;;;;;;;5.93;3.43;;;;;;;19.82;64.25;100969.47;686408;28;1125;-44
2022/05/19 01:57:01;;;;;;;5.55;3.38;;;;;;;19.87;64.19;100974.59;686367;28;1567;-45
2022/05/19 01:57:27;;;;;;;5.40;3.55;;;;;;;19.89;63.89;100973.59;688020;28;851;-44
2022/05/19 01:58:23;;;;;;;5.38;3.45;;;;;;;19.87;64.45;100975.47;685994;28;1374;-44
2022/05/19 01:59:24;;;;;;;5.10;3.40;;;;;;;19.83;64.41;100970.34;678577;28;6185;-44
2022/05/19 01:59:53;;;;;;;5.03;3.45;;;;;;;19.88;63.93;100974.53;666429;29;1340;-44
2022/05/19 02:00:17;;;;;;;6.05;3.45;;;;;;;19.88;64.05;100984.28;674848;29;1301;-45
2022/05/19 02:00:41;;;;;;;5.35;3.50;;;;;;;19.88;64.02;100976.31;676169;28;1150;-47
2022/05/19 02:01:06;;;;;;;4.78;3.42;;;;;;;19.88;64.14;100978.97;687513;28;1065;-46
2022/05/19 02:01:27;;;;;;;4.95;3.58;;;;;;;19.92;63.73;100979.72;685464;28;4886;-44
2022/05/19 02:02:07;;;;;;;5.55;3.42;;;;;;;19.92;63.77;100977.06;687881;28;1239;-44
2022/05/19 02:02:31;;;;;;;5.47;3.50;;;;;;;19.93;63.47;100979.66;686609;28;1081;-45
2022/05/19 02:02:56;;;;;;;5.38;3.40;;;;;;;19.89;64.58;100983.34;686869;28;948;-44
2022/05/19 02:03:25;;;;;;;5.03;3.55;;;;;;;19.87;64.87;100978.13;685532;28;1120;-44
2022/05/19 02:04:11;;;;;;;5.18;3.78;;;;;;;19.86;63.78;100976.38;686485;28;1056;-44
2022/05/19 02:04:45;;;;;;;5.05;3.33;;;;;;;19.89;63.57;100980.69;686014;28;4323;-46